Laramie Regional Airport
KLAR : rendu visible

Aérodrome :











RETROUVEZ-NOUS SUR...

 
LOGIN :

S'inscrire | Disclaimer

   EN    FR    IT 

 









Légende :    VFR   VFR Marginal   IFR   IFR Intensif   IFR Très Intensif
Visi : 
Plafond : 
>= 8 km
>= 3000ft
5 à 8 km
1000 à 3000 ft
1500m à 5 km
500 à 1000 ft
800 à 1500m
200 à 500 ft
< 800m
< 200 ft
Symboles :   Orages  Brouillard  Fortes neiges  Fortes précipitations  Vent > 20 kt






- Altitude de l'aérodrome : 7284 ft
- Code IATA : LAR


KLAR - Laramie Regional

DERNIER METAR :
  • 100653Z AUTO 07005KT 10SM SCT048 OVC120 M08/M12 A2998 RMK AO2 SLP193 T10831117 410171100

METARs EXPIRÉS :
  • 100553Z AUTO 00000KT 10SM SCT090 BKN110 M08/M12 A2998 RMK AO2 SLP192 T10831122 11061 21100 51003
  • 100453Z AUTO 00000KT 10SM BKN110 M08/M12 A2998 RMK AO2 SLP192 T10781122

TAF KLAR
Valide du 10 à 06h jusqu'au 11 à 06h UTC


100530Z 1006/1106 VRB03KT P6SM OVC100
FM100800 24008KT P6SM BKN150 WS020/28035KT
FM101200 26007KT P6SM FEW180
FM102000 26013G22KT P6SM SKC
FM102200 26012KT P6SM SKC



MET'MAP, la Météo Aéronautique d'un coup d'oeil ! - Copyright ORBIFLY Décembre 2007 - Disclaimer

ORBIFLY MET'MAP TEAM :

Programmation & Développement : Alexandra Zaïnal
Sur une idée originale de : Baudouin d'Aumeries
Assistance à la programmation : Marc-Olivier Méhu
Soutien technique & logistique : Manuel Goepfert

Contact : metmap@orbifly.com




SOURCES & CREDITS :

   NOAA       Earth
Advisory